createdAt,value
2018-09-09T00:00:08.442Z,0.00
2018-09-09T00:01:08.681Z,0.00
2018-09-09T00:02:08.911Z,0.00
2018-09-09T00:03:09.147Z,0.00
2018-09-09T00:04:09.387Z,0.00
2018-09-09T00:05:09.624Z,0.00
2018-09-09T00:06:09.864Z,0.00
2018-09-09T00:07:10.104Z,0.00
2018-09-09T00:08:10.342Z,0.00
2018-09-09T00:09:10.574Z,0.00
2018-09-09T00:10:10.821Z,0.00
2018-09-09T00:11:11.057Z,0.00
2018-09-09T00:12:11.302Z,0.00
2018-09-09T00:13:11.538Z,0.00
2018-09-09T00:14:11.780Z,0.00
2018-09-09T00:15:12.024Z,0.00
2018-09-09T00:16:12.261Z,0.00
2018-09-09T00:17:12.494Z,0.00
2018-09-09T00:18:12.739Z,0.00
2018-09-09T00:19:12.976Z,0.00
2018-09-09T00:20:13.216Z,0.00
2018-09-09T00:21:13.451Z,0.00
2018-09-09T00:22:13.694Z,0.00
2018-09-09T00:23:13.932Z,0.00
2018-09-09T00:24:14.162Z,0.00
2018-09-09T00:25:14.400Z,0.00
2018-09-09T00:26:14.645Z,0.00
2018-09-09T00:27:14.882Z,0.00
2018-09-09T00:28:15.119Z,0.00
2018-09-09T00:29:15.356Z,0.00
2018-09-09T00:30:15.597Z,0.00
2018-09-09T00:31:15.829Z,0.00
2018-09-09T00:32:16.079Z,0.00
2018-09-09T00:33:16.319Z,0.00
2018-09-09T00:34:16.559Z,0.00
2018-09-09T00:35:16.796Z,0.00
2018-09-09T00:36:17.034Z,0.00
2018-09-09T00:37:17.272Z,0.00
2018-09-09T00:38:17.509Z,0.00
2018-09-09T00:39:17.749Z,0.00
2018-09-09T00:40:17.993Z,0.00
2018-09-09T00:41:18.232Z,0.00
2018-09-09T00:42:18.469Z,0.00
2018-09-09T00:43:18.700Z,0.00
2018-09-09T00:44:18.930Z,0.00
2018-09-09T00:45:19.184Z,0.00
2018-09-09T00:46:19.418Z,0.00
2018-09-09T00:47:19.659Z,0.00
2018-09-09T00:48:19.893Z,0.00
2018-09-09T00:49:20.128Z,0.00
2018-09-09T00:50:20.364Z,0.00
2018-09-09T00:51:20.601Z,0.00
2018-09-09T00:52:20.841Z,0.00
2018-09-09T00:53:21.078Z,0.00
2018-09-09T00:54:21.323Z,0.00
2018-09-09T00:55:21.555Z,0.00
2018-09-09T00:56:21.795Z,0.00
2018-09-09T00:57:22.034Z,0.00
2018-09-09T00:58:22.269Z,0.00
2018-09-09T00:59:22.508Z,0.00
2018-09-09T01:00:22.748Z,0.00
2018-09-09T01:01:22.985Z,0.00
2018-09-09T01:02:23.225Z,0.00
2018-09-09T01:03:23.461Z,0.00
2018-09-09T01:04:23.695Z,0.00
2018-09-09T01:05:23.930Z,0.00
2018-09-09T01:06:24.168Z,0.00
2018-09-09T01:07:24.405Z,0.00
2018-09-09T01:08:24.642Z,0.00
2018-09-09T01:09:24.880Z,0.00
2018-09-09T01:10:25.120Z,0.00
2018-09-09T01:11:25.356Z,0.00
2018-09-09T01:12:25.634Z,0.00
2018-09-09T01:13:25.838Z,0.00
2018-09-09T01:14:26.073Z,0.00
2018-09-09T01:15:26.314Z,0.00
2018-09-09T01:16:26.552Z,0.00
2018-09-09T01:17:26.787Z,0.00
2018-09-09T01:18:27.024Z,0.00
2018-09-09T01:19:27.263Z,0.00
2018-09-09T01:20:27.503Z,0.00
2018-09-09T01:21:27.741Z,0.00
2018-09-09T01:22:27.978Z,0.00
2018-09-09T01:23:28.221Z,0.00
2018-09-09T01:24:28.461Z,0.00
2018-09-09T01:25:28.696Z,0.00
2018-09-09T01:26:28.936Z,0.00
2018-09-09T01:27:29.175Z,0.00
2018-09-09T01:28:29.413Z,0.00
2018-09-09T01:29:29.653Z,0.00
2018-09-09T01:30:29.891Z,0.00
2018-09-09T01:31:30.130Z,0.00
2018-09-09T01:32:30.364Z,0.00
2018-09-09T01:33:30.635Z,0.00
2018-09-09T01:34:30.836Z,0.00
2018-09-09T01:35:31.079Z,0.00
2018-09-09T01:36:31.312Z,0.00
2018-09-09T01:37:31.547Z,0.00
2018-09-09T01:38:31.789Z,0.00
2018-09-09T01:39:32.025Z,0.00
2018-09-09T01:40:32.261Z,0.00
2018-09-09T01:41:32.499Z,0.00
2018-09-09T01:42:32.737Z,0.00
2018-09-09T01:43:32.976Z,0.00
2018-09-09T01:44:33.214Z,0.00
2018-09-09T01:45:41.079Z,0.00
2018-09-09T01:46:42.371Z,0.00
2018-09-09T01:47:34.121Z,0.00
2018-09-09T01:48:34.360Z,0.00
2018-09-09T01:49:34.600Z,0.00
2018-09-09T01:50:34.828Z,0.00
2018-09-09T01:51:35.065Z,0.00
2018-09-09T01:52:35.303Z,0.00
2018-09-09T01:53:35.543Z,0.00
2018-09-09T01:54:35.785Z,0.00
2018-09-09T01:55:36.017Z,0.00
2018-09-09T01:56:36.255Z,0.00
2018-09-09T01:57:36.493Z,0.00
2018-09-09T01:58:36.730Z,0.00
2018-09-09T01:59:36.973Z,0.00
2018-09-09T02:00:37.213Z,0.00
2018-09-09T02:01:37.456Z,0.00
2018-09-09T02:02:37.696Z,0.00
2018-09-09T02:03:37.936Z,0.00
2018-09-09T02:04:38.174Z,0.00
2018-09-09T02:05:38.407Z,0.00
2018-09-09T02:06:38.649Z,0.00
2018-09-09T02:07:38.894Z,0.00
2018-09-09T02:08:39.125Z,0.00
2018-09-09T02:09:39.362Z,0.00
2018-09-09T02:10:39.600Z,0.00
2018-09-09T02:11:39.839Z,0.00
2018-09-09T02:12:40.076Z,0.00
2018-09-09T02:13:40.313Z,0.00
2018-09-09T02:14:40.552Z,0.00
2018-09-09T02:15:40.789Z,0.00
2018-09-09T02:16:41.026Z,0.00
2018-09-09T02:17:41.263Z,0.00
2018-09-09T02:18:41.506Z,0.00
2018-09-09T02:19:41.740Z,0.00
2018-09-09T02:20:41.989Z,0.00
2018-09-09T02:21:42.214Z,0.00
2018-09-09T02:22:42.454Z,0.00
2018-09-09T02:23:42.700Z,0.00
2018-09-09T02:24:42.930Z,0.00
2018-09-09T02:25:43.234Z,0.00
2018-09-09T02:26:43.408Z,0.00
2018-09-09T02:27:43.644Z,0.00
2018-09-09T02:28:43.886Z,0.00
2018-09-09T02:29:44.124Z,0.00
2018-09-09T02:30:44.361Z,0.00
2018-09-09T02:31:44.598Z,0.00
2018-09-09T02:32:44.832Z,0.00
2018-09-09T02:33:45.078Z,0.00
2018-09-09T02:34:45.311Z,0.00
2018-09-09T02:35:45.553Z,0.00
2018-09-09T02:36:45.791Z,0.00
2018-09-09T02:37:46.044Z,0.00
2018-09-09T02:38:46.257Z,0.00
2018-09-09T02:39:46.498Z,0.00
2018-09-09T02:40:46.729Z,0.00
2018-09-09T02:41:46.969Z,0.00
2018-09-09T02:42:47.207Z,0.00
2018-09-09T02:43:47.485Z,0.00
2018-09-09T02:44:47.682Z,0.00
2018-09-09T02:45:47.914Z,0.00
2018-09-09T02:46:48.152Z,0.00
2018-09-09T02:47:48.394Z,0.00
2018-09-09T02:48:48.619Z,0.00
2018-09-09T02:49:48.860Z,0.00
2018-09-09T02:50:49.099Z,0.00
2018-09-09T02:51:49.336Z,0.00
2018-09-09T02:52:49.575Z,0.00
2018-09-09T02:53:49.813Z,0.00
2018-09-09T02:54:50.051Z,0.00
2018-09-09T02:55:50.286Z,0.00
2018-09-09T02:56:50.525Z,0.00
2018-09-09T02:57:50.762Z,0.00
2018-09-09T02:58:51.005Z,0.00
2018-09-09T02:59:51.248Z,0.00
2018-09-09T03:00:51.475Z,0.00
2018-09-09T03:01:51.715Z,0.00
2018-09-09T03:02:51.955Z,0.00
2018-09-09T03:03:52.191Z,0.00
2018-09-09T03:04:52.427Z,0.00
2018-09-09T03:05:52.663Z,0.00
2018-09-09T03:06:52.909Z,0.00
2018-09-09T03:07:53.135Z,0.00
2018-09-09T03:08:53.371Z,0.00
2018-09-09T03:09:53.608Z,0.00
2018-09-09T03:10:53.847Z,0.00
2018-09-09T03:11:54.094Z,0.00
2018-09-09T03:12:54.321Z,0.00
2018-09-09T03:13:54.564Z,0.00
2018-09-09T03:14:54.802Z,0.00
2018-09-09T03:15:55.040Z,0.00
2018-09-09T03:16:55.279Z,0.00
2018-09-09T03:17:55.522Z,0.00
2018-09-09T03:18:55.755Z,0.00
2018-09-09T03:19:55.997Z,0.00
2018-09-09T03:20:56.231Z,0.00
2018-09-09T03:21:56.469Z,0.00
2018-09-09T03:22:56.710Z,0.00
2018-09-09T03:23:56.939Z,0.00
2018-09-09T03:24:57.175Z,0.00
2018-09-09T03:25:57.400Z,0.00
2018-09-09T03:26:57.636Z,0.00
2018-09-09T03:27:57.888Z,0.00
2018-09-09T03:28:58.112Z,0.00
2018-09-09T03:29:58.352Z,0.00
2018-09-09T03:30:58.586Z,0.00
2018-09-09T03:31:58.823Z,0.00
2018-09-09T03:32:59.061Z,0.00
2018-09-09T03:33:59.300Z,0.00
2018-09-09T03:34:59.536Z,0.00
2018-09-09T03:35:59.774Z,0.00
2018-09-09T03:37:00.016Z,0.00
2018-09-09T03:38:00.250Z,0.00
2018-09-09T03:39:00.476Z,0.00
2018-09-09T03:40:00.719Z,0.00
2018-09-09T03:41:00.956Z,0.00
2018-09-09T03:42:01.193Z,0.00
2018-09-09T03:43:01.435Z,0.00
2018-09-09T03:44:01.670Z,0.00
2018-09-09T03:45:09.539Z,0.00
2018-09-09T03:46:02.207Z,0.00
2018-09-09T03:47:02.442Z,0.00
2018-09-09T03:48:02.680Z,0.00
2018-09-09T03:49:02.931Z,0.00
2018-09-09T03:50:03.150Z,0.00
2018-09-09T03:51:03.389Z,0.00
2018-09-09T03:52:03.623Z,0.00
2018-09-09T03:53:03.859Z,0.00
2018-09-09T03:54:04.100Z,0.00
2018-09-09T03:55:04.343Z,0.00
2018-09-09T03:56:04.579Z,0.00
2018-09-09T03:57:04.816Z,0.00
2018-09-09T03:58:05.046Z,0.00
2018-09-09T03:59:05.286Z,0.00
2018-09-09T04:00:05.524Z,0.00
2018-09-09T04:01:05.763Z,0.00
2018-09-09T04:02:05.998Z,0.00
2018-09-09T04:03:06.239Z,0.00
2018-09-09T04:04:06.473Z,0.00
2018-09-09T04:05:06.712Z,0.00
2018-09-09T04:06:06.952Z,0.00
2018-09-09T04:07:07.189Z,0.00
2018-09-09T04:08:07.426Z,0.00
2018-09-09T04:09:07.663Z,0.00
2018-09-09T04:10:07.907Z,0.00
2018-09-09T04:11:08.140Z,0.00
2018-09-09T04:12:08.379Z,0.00
2018-09-09T04:13:08.622Z,0.00
2018-09-09T04:14:08.856Z,0.00
2018-09-09T04:15:09.096Z,0.00
2018-09-09T04:16:09.344Z,0.00
2018-09-09T04:17:09.567Z,0.00
2018-09-09T04:18:09.810Z,0.00
2018-09-09T04:19:10.053Z,0.00
2018-09-09T04:20:10.289Z,0.00
2018-09-09T04:21:10.526Z,0.00
2018-09-09T04:22:10.763Z,0.00
2018-09-09T04:23:11.001Z,0.00
2018-09-09T04:24:11.241Z,0.00
2018-09-09T04:25:11.479Z,0.00
2018-09-09T04:26:11.715Z,0.00
2018-09-09T04:27:11.955Z,0.00
2018-09-09T04:28:12.184Z,0.00
2018-09-09T04:29:12.424Z,0.00
2018-09-09T04:30:12.661Z,0.00
2018-09-09T04:31:12.893Z,0.00
2018-09-09T04:32:13.133Z,0.00
2018-09-09T04:33:13.371Z,0.00
2018-09-09T04:34:13.614Z,0.00
2018-09-09T04:35:13.863Z,0.00
2018-09-09T04:36:14.091Z,0.00
2018-09-09T04:37:14.334Z,0.00
2018-09-09T04:38:14.574Z,0.00
2018-09-09T04:39:14.810Z,0.00
2018-09-09T04:40:15.051Z,0.00
2018-09-09T04:41:15.288Z,0.00
2018-09-09T04:42:15.519Z,0.00
2018-09-09T04:43:15.755Z,0.00
2018-09-09T04:44:15.985Z,0.00
2018-09-09T04:45:16.231Z,5.63
2018-09-09T04:46:16.518Z,5.63
2018-09-09T04:47:16.704Z,5.63
2018-09-09T04:48:16.942Z,5.63
2018-09-09T04:49:17.185Z,5.63
2018-09-09T04:50:17.426Z,5.63
2018-09-09T04:51:17.666Z,5.63
2018-09-09T04:52:17.899Z,5.63
2018-09-09T04:53:18.136Z,5.63
2018-09-09T04:54:18.379Z,5.63
2018-09-09T04:55:18.616Z,5.63
2018-09-09T04:56:18.860Z,5.63
2018-09-09T04:57:19.096Z,11.25
2018-09-09T04:58:19.333Z,11.25
2018-09-09T04:59:19.577Z,11.25
2018-09-09T05:00:19.819Z,11.25
2018-09-09T05:01:20.108Z,11.25
2018-09-09T05:02:20.290Z,16.88
2018-09-09T05:03:20.529Z,16.88
2018-09-09T05:04:20.764Z,16.88
2018-09-09T05:05:21.006Z,16.88
2018-09-09T05:06:21.244Z,22.50
2018-09-09T05:07:21.481Z,22.50
2018-09-09T05:08:21.717Z,22.50
2018-09-09T05:09:21.967Z,22.50
2018-09-09T05:10:22.197Z,28.13
2018-09-09T05:11:22.438Z,28.13
2018-09-09T05:12:22.676Z,28.13
2018-09-09T05:13:22.916Z,28.13
2018-09-09T05:14:23.155Z,28.13
2018-09-09T05:15:23.398Z,28.13
2018-09-09T05:16:23.636Z,28.13
2018-09-09T05:17:23.877Z,28.13
2018-09-09T05:18:24.115Z,28.13
2018-09-09T05:19:24.359Z,33.75
2018-09-09T05:20:24.595Z,33.75
2018-09-09T05:21:24.848Z,33.75
2018-09-09T05:22:25.119Z,39.38
2018-09-09T05:23:25.358Z,39.38
2018-09-09T05:24:25.598Z,39.38
2018-09-09T05:25:25.835Z,45.00
2018-09-09T05:26:26.075Z,45.00
2018-09-09T05:27:26.314Z,45.00
2018-09-09T05:28:26.553Z,50.63
2018-09-09T05:29:26.793Z,50.63
2018-09-09T05:30:27.039Z,56.25
2018-09-09T05:31:27.277Z,56.25
2018-09-09T05:32:27.515Z,61.88
2018-09-09T05:33:27.753Z,61.88
2018-09-09T05:34:27.993Z,67.50
2018-09-09T05:35:28.230Z,73.13
2018-09-09T05:36:28.473Z,78.75
2018-09-09T05:37:28.710Z,78.75
2018-09-09T05:38:28.950Z,84.38
2018-09-09T05:39:29.187Z,90.00
2018-09-09T05:40:29.431Z,95.63
2018-09-09T05:41:29.665Z,101.25
2018-09-09T05:42:29.898Z,106.88
2018-09-09T05:43:30.139Z,118.13
2018-09-09T05:44:30.431Z,123.75
2018-09-09T05:45:30.611Z,123.75
2018-09-09T05:46:30.856Z,135.00
2018-09-09T05:47:31.096Z,140.63
2018-09-09T05:48:31.336Z,140.63
2018-09-09T05:49:31.581Z,140.63
2018-09-09T05:50:31.825Z,140.63
2018-09-09T05:51:32.053Z,135.00
2018-09-09T05:52:32.292Z,135.00
2018-09-09T05:53:32.529Z,135.00
2018-09-09T05:54:32.770Z,129.38
2018-09-09T05:55:33.001Z,129.38
2018-09-09T05:56:33.238Z,135.00
2018-09-09T05:57:33.478Z,135.00
2018-09-09T05:58:33.718Z,129.38
2018-09-09T05:59:33.959Z,129.38
2018-09-09T06:00:34.203Z,135.00
2018-09-09T06:01:34.434Z,129.38
2018-09-09T06:02:34.673Z,129.38
2018-09-09T06:03:34.910Z,129.38
2018-09-09T06:04:35.152Z,129.38
2018-09-09T06:05:35.394Z,135.00
2018-09-09T06:06:35.630Z,135.00
2018-09-09T06:07:35.868Z,140.63
2018-09-09T06:08:36.106Z,146.25
2018-09-09T06:09:36.347Z,151.88
2018-09-09T06:10:36.584Z,157.50
2018-09-09T06:11:36.822Z,157.50
2018-09-09T06:12:37.061Z,157.50
2018-09-09T06:13:37.301Z,163.13
2018-09-09T06:14:37.540Z,168.75
2018-09-09T06:15:37.781Z,180.00
2018-09-09T06:16:38.018Z,185.63
2018-09-09T06:17:38.255Z,191.25
2018-09-09T06:18:38.500Z,202.50
2018-09-09T06:19:38.733Z,208.13
2018-09-09T06:20:38.971Z,213.75
2018-09-09T06:21:39.208Z,225.00
2018-09-09T06:22:39.449Z,236.25
2018-09-09T06:23:39.690Z,264.38
2018-09-09T06:24:39.928Z,253.13
2018-09-09T06:25:40.168Z,275.63
2018-09-09T06:26:40.405Z,275.63
2018-09-09T06:27:40.648Z,292.50
2018-09-09T06:28:40.888Z,286.88
2018-09-09T06:29:41.127Z,298.13
2018-09-09T06:30:41.367Z,315.00
2018-09-09T06:31:41.607Z,320.63
2018-09-09T06:32:41.849Z,320.63
2018-09-09T06:33:42.140Z,343.13
2018-09-09T06:34:42.323Z,331.88
2018-09-09T06:35:42.561Z,326.25
2018-09-09T06:36:42.801Z,320.63
2018-09-09T06:37:43.043Z,326.25
2018-09-09T06:38:43.281Z,343.13
2018-09-09T06:39:43.519Z,410.63
2018-09-09T06:40:43.761Z,461.25
2018-09-09T06:41:44.000Z,388.13
2018-09-09T06:42:44.241Z,382.50
2018-09-09T06:43:44.481Z,371.25
2018-09-09T06:44:44.722Z,360.00
2018-09-09T06:45:44.962Z,388.13
2018-09-09T06:46:45.203Z,483.75
2018-09-09T06:47:45.445Z,433.13
2018-09-09T06:48:45.682Z,545.63
2018-09-09T06:49:45.927Z,562.50
2018-09-09T06:50:46.165Z,888.75
2018-09-09T06:51:46.409Z,855.00
2018-09-09T06:52:46.687Z,939.38
2018-09-09T06:53:46.931Z,877.50
2018-09-09T06:54:47.172Z,641.25
2018-09-09T06:55:47.416Z,1040.63
2018-09-09T06:56:47.656Z,916.88
2018-09-09T06:57:47.899Z,776.25
2018-09-09T06:58:48.140Z,680.63
2018-09-09T06:59:48.386Z,596.25
2018-09-09T07:00:48.635Z,500.63
2018-09-09T07:01:48.890Z,585.00
2018-09-09T07:02:49.135Z,568.13
2018-09-09T07:03:49.378Z,517.50
2018-09-09T07:04:49.626Z,483.75
2018-09-09T07:05:49.868Z,472.50
2018-09-09T07:06:50.112Z,478.13
2018-09-09T07:07:50.355Z,500.63
2018-09-09T07:08:50.659Z,511.88
2018-09-09T07:09:50.911Z,534.38
2018-09-09T07:10:51.171Z,568.13
2018-09-09T07:11:51.559Z,573.75
2018-09-09T07:12:51.643Z,635.63
2018-09-09T07:13:51.889Z,697.50
2018-09-09T07:14:52.130Z,697.50
2018-09-09T07:15:52.376Z,675.00
2018-09-09T07:16:52.622Z,703.13
2018-09-09T07:17:52.863Z,590.63
2018-09-09T07:18:53.108Z,585.00
2018-09-09T07:19:53.351Z,573.75
2018-09-09T07:20:53.596Z,585.00
2018-09-09T07:21:53.842Z,540.00
2018-09-09T07:22:54.077Z,540.00
2018-09-09T07:23:54.325Z,551.25
2018-09-09T07:24:54.568Z,523.13
2018-09-09T07:25:54.813Z,517.50
2018-09-09T07:26:55.056Z,506.25
2018-09-09T07:27:55.302Z,511.88
2018-09-09T07:28:55.548Z,511.88
2018-09-09T07:29:55.793Z,523.13
2018-09-09T07:30:56.038Z,517.50
2018-09-09T07:31:56.281Z,523.13
2018-09-09T07:32:56.527Z,540.00
2018-09-09T07:33:56.772Z,511.88
2018-09-09T07:34:57.019Z,461.25
2018-09-09T07:35:57.264Z,472.50
2018-09-09T07:36:57.510Z,450.00
2018-09-09T07:37:57.751Z,433.13
2018-09-09T07:38:57.997Z,427.50
2018-09-09T07:39:58.239Z,438.75
2018-09-09T07:40:58.484Z,455.63
2018-09-09T07:42:06.352Z,478.13
2018-09-09T07:42:59.027Z,472.50
2018-09-09T07:43:59.272Z,523.13
2018-09-09T07:44:59.519Z,646.88
2018-09-09T07:45:59.765Z,691.88
2018-09-09T07:47:00.009Z,725.63
2018-09-09T07:48:00.289Z,585.00
2018-09-09T07:49:00.495Z,579.38
2018-09-09T07:50:00.741Z,568.13
2018-09-09T07:51:00.985Z,551.25
2018-09-09T07:52:01.232Z,545.63
2018-09-09T07:53:01.476Z,523.13
2018-09-09T07:54:01.721Z,579.38
2018-09-09T07:55:01.969Z,556.88
2018-09-09T07:56:02.210Z,534.38
2018-09-09T07:57:02.460Z,483.75
2018-09-09T07:58:02.703Z,483.75
2018-09-09T07:59:02.949Z,489.38
2018-09-09T08:00:03.195Z,517.50
2018-09-09T08:01:03.439Z,596.25
2018-09-09T08:02:03.683Z,573.75
2018-09-09T08:03:03.927Z,517.50
2018-09-09T08:04:04.175Z,500.63
2018-09-09T08:05:04.416Z,506.25
2018-09-09T08:06:04.656Z,511.88
2018-09-09T08:07:04.899Z,523.13
2018-09-09T08:08:05.144Z,540.00
2018-09-09T08:09:05.390Z,562.50
2018-09-09T08:10:05.637Z,573.75
2018-09-09T08:11:05.880Z,568.13
2018-09-09T08:12:06.134Z,573.75
2018-09-09T08:13:06.373Z,590.63
2018-09-09T08:14:06.618Z,613.13
2018-09-09T08:15:06.861Z,641.25
2018-09-09T08:16:07.107Z,720.00
2018-09-09T08:17:07.352Z,697.50
2018-09-09T08:18:07.598Z,1558.13
2018-09-09T08:19:07.836Z,1625.63
2018-09-09T08:20:08.081Z,1321.88
2018-09-09T08:21:08.326Z,1659.38
2018-09-09T08:22:08.577Z,1125.00
2018-09-09T08:23:08.814Z,933.75
2018-09-09T08:24:09.061Z,1321.88
2018-09-09T08:25:09.311Z,1411.88
2018-09-09T08:26:09.557Z,1468.13
2018-09-09T08:27:09.802Z,1389.38
2018-09-09T08:28:10.049Z,1468.13
2018-09-09T08:29:10.295Z,1417.50
2018-09-09T08:30:10.546Z,1040.63
2018-09-09T08:31:10.788Z,1018.13
2018-09-09T08:32:11.034Z,1355.63
2018-09-09T08:33:11.279Z,1350.00
2018-09-09T08:34:11.527Z,1434.38
2018-09-09T08:35:11.794Z,1366.88
2018-09-09T08:36:12.038Z,1147.50
2018-09-09T08:37:12.287Z,1080.00
2018-09-09T08:38:12.535Z,1215.00
2018-09-09T08:39:12.782Z,1366.88
2018-09-09T08:40:13.031Z,1378.13
2018-09-09T08:41:13.279Z,1372.50
2018-09-09T08:42:13.528Z,1434.38
2018-09-09T08:43:13.775Z,1479.38
2018-09-09T08:44:14.024Z,1513.13
2018-09-09T08:45:14.269Z,1563.75
2018-09-09T08:46:14.520Z,1676.25
2018-09-09T08:47:14.765Z,1681.88
2018-09-09T08:48:15.015Z,1428.75
2018-09-09T08:49:15.264Z,1237.50
2018-09-09T08:50:15.511Z,1035.00
2018-09-09T08:51:15.762Z,849.38
2018-09-09T08:52:16.077Z,776.25
2018-09-09T08:53:16.267Z,753.75
2018-09-09T08:54:16.508Z,731.25
2018-09-09T08:55:16.758Z,731.25
2018-09-09T08:56:17.008Z,731.25
2018-09-09T08:57:17.255Z,748.13
2018-09-09T08:58:17.504Z,748.13
2018-09-09T08:59:17.753Z,731.25
2018-09-09T09:00:18.003Z,759.38
2018-09-09T09:01:18.249Z,736.88
2018-09-09T09:02:18.498Z,826.88
2018-09-09T09:03:18.746Z,905.63
2018-09-09T09:04:18.995Z,911.25
2018-09-09T09:05:19.267Z,900.00
2018-09-09T09:06:19.513Z,894.38
2018-09-09T09:07:19.764Z,916.88
2018-09-09T09:08:20.008Z,967.50
2018-09-09T09:09:20.257Z,1006.88
2018-09-09T09:10:20.505Z,995.63
2018-09-09T09:11:20.753Z,1141.88
2018-09-09T09:12:21.001Z,1136.25
2018-09-09T09:13:21.251Z,1282.50
2018-09-09T09:14:21.531Z,1372.50
2018-09-09T09:15:21.970Z,1524.38
2018-09-09T09:16:21.998Z,1591.88
2018-09-09T09:17:22.244Z,1597.50
2018-09-09T09:18:22.492Z,1496.25
2018-09-09T09:19:22.741Z,1591.88
2018-09-09T09:20:22.991Z,1659.38
2018-09-09T09:21:23.242Z,1670.63
2018-09-09T09:22:23.495Z,1783.13
2018-09-09T09:23:23.745Z,1912.50
2018-09-09T09:24:23.996Z,1721.25
2018-09-09T09:25:24.248Z,1535.63
2018-09-09T09:26:24.499Z,1085.63
2018-09-09T09:27:24.752Z,978.75
2018-09-09T09:28:25.004Z,950.63
2018-09-09T09:29:25.256Z,1012.50
2018-09-09T09:30:25.508Z,905.63
2018-09-09T09:31:25.760Z,894.38
2018-09-09T09:32:26.017Z,911.25
2018-09-09T09:33:26.270Z,849.38
2018-09-09T09:34:26.518Z,843.75
2018-09-09T09:35:26.769Z,838.13
2018-09-09T09:36:27.026Z,826.88
2018-09-09T09:37:27.274Z,838.13
2018-09-09T09:38:27.529Z,832.50
2018-09-09T09:39:27.835Z,911.25
2018-09-09T09:40:28.023Z,798.75
2018-09-09T09:41:28.273Z,810.00
2018-09-09T09:42:28.524Z,781.88
2018-09-09T09:43:28.779Z,748.13
2018-09-09T09:44:29.024Z,731.25
2018-09-09T09:45:29.275Z,720.00
2018-09-09T09:46:29.528Z,708.75
2018-09-09T09:47:29.776Z,697.50
2018-09-09T09:48:30.023Z,669.38
2018-09-09T09:49:30.276Z,658.13
2018-09-09T09:50:30.525Z,669.38
2018-09-09T09:51:30.774Z,646.88
2018-09-09T09:52:31.022Z,641.25
2018-09-09T09:53:31.329Z,646.88
2018-09-09T09:54:31.518Z,652.50
2018-09-09T09:55:31.842Z,663.75
2018-09-09T09:56:32.015Z,675.00
2018-09-09T09:57:32.263Z,691.88
2018-09-09T09:58:32.510Z,697.50
2018-09-09T09:59:32.760Z,720.00
2018-09-09T10:00:33.007Z,742.50
2018-09-09T10:01:33.288Z,770.63
2018-09-09T10:02:33.502Z,776.25
2018-09-09T10:03:33.753Z,804.38
2018-09-09T10:04:33.998Z,826.88
2018-09-09T10:05:34.246Z,849.38
2018-09-09T10:06:34.496Z,866.25
2018-09-09T10:07:34.741Z,905.63
2018-09-09T10:08:34.992Z,961.88
2018-09-09T10:09:35.240Z,888.75
2018-09-09T10:10:35.493Z,888.75
2018-09-09T10:11:35.738Z,883.13
2018-09-09T10:12:35.988Z,888.75
2018-09-09T10:13:36.237Z,883.13
2018-09-09T10:14:36.485Z,877.50
2018-09-09T10:15:36.739Z,928.13
2018-09-09T10:16:36.985Z,900.00
2018-09-09T10:17:37.234Z,950.63
2018-09-09T10:18:37.485Z,961.88
2018-09-09T10:19:37.734Z,984.38
2018-09-09T10:20:37.985Z,1085.63
2018-09-09T10:21:38.232Z,1102.50
2018-09-09T10:22:38.482Z,1102.50
2018-09-09T10:23:38.734Z,1018.13
2018-09-09T10:24:38.980Z,1018.13
2018-09-09T10:25:39.229Z,1040.63
2018-09-09T10:26:39.481Z,1096.88
2018-09-09T10:27:39.733Z,1063.13
2018-09-09T10:28:39.978Z,1125.00
2018-09-09T10:29:40.229Z,1063.13
2018-09-09T10:30:40.479Z,1080.00
2018-09-09T10:31:40.729Z,1119.38
2018-09-09T10:32:40.978Z,1085.63
2018-09-09T10:33:41.225Z,1102.50
2018-09-09T10:34:41.476Z,1102.50
2018-09-09T10:35:41.729Z,1125.00
2018-09-09T10:36:41.977Z,1310.63
2018-09-09T10:37:42.224Z,1305.00
2018-09-09T10:38:42.475Z,1580.63
2018-09-09T10:39:42.733Z,1203.75
2018-09-09T10:40:42.999Z,1186.88
2018-09-09T10:41:43.229Z,1366.88
2018-09-09T10:42:43.481Z,1333.13
2018-09-09T10:43:43.729Z,1243.13
2018-09-09T10:44:43.977Z,1271.25
2018-09-09T10:45:44.229Z,1513.13
2018-09-09T10:46:44.551Z,1800.00
2018-09-09T10:47:44.729Z,1867.50
2018-09-09T10:48:44.981Z,1861.88
2018-09-09T10:49:45.232Z,1760.63
2018-09-09T10:50:45.481Z,1878.75
2018-09-09T10:51:45.733Z,1704.38
2018-09-09T10:52:45.984Z,1400.63
2018-09-09T10:53:46.237Z,1451.25
2018-09-09T10:54:46.489Z,1591.88
2018-09-09T10:55:46.741Z,1473.75
2018-09-09T10:56:46.992Z,1726.88
2018-09-09T10:57:47.245Z,1575.00
2018-09-09T10:58:47.545Z,1681.88
2018-09-09T10:59:47.749Z,1485.00
2018-09-09T11:00:48.006Z,1873.13
2018-09-09T11:01:48.259Z,1468.13
2018-09-09T11:02:48.515Z,1479.38
2018-09-09T11:03:48.766Z,1518.75
2018-09-09T11:04:49.023Z,1479.38
2018-09-09T11:05:49.275Z,1445.63
2018-09-09T11:06:49.535Z,1614.38
2018-09-09T11:07:49.782Z,1732.50
2018-09-09T11:08:50.030Z,1333.13
2018-09-09T11:09:50.285Z,1299.38
2018-09-09T11:10:50.538Z,1271.25
2018-09-09T11:11:50.793Z,1288.13
2018-09-09T11:12:51.081Z,1715.63
2018-09-09T11:13:51.301Z,1783.13
2018-09-09T11:14:51.556Z,1670.63
2018-09-09T11:15:51.810Z,1451.25
2018-09-09T11:16:52.063Z,1631.25
2018-09-09T11:17:52.317Z,1541.25
2018-09-09T11:18:52.591Z,1552.50
2018-09-09T11:19:52.823Z,1411.88
2018-09-09T11:20:53.079Z,1451.25
2018-09-09T11:21:53.335Z,1462.50
2018-09-09T11:22:53.586Z,1665.00
2018-09-09T11:23:53.847Z,1552.50
2018-09-09T11:24:54.083Z,1586.25
2018-09-09T11:25:54.338Z,1490.63
2018-09-09T11:26:54.592Z,1473.75
2018-09-09T11:27:54.845Z,1473.75
2018-09-09T11:28:55.106Z,1496.25
2018-09-09T11:29:55.426Z,1485.00
2018-09-09T11:30:55.608Z,1490.63
2018-09-09T11:31:58.028Z,1530.00
2018-09-09T11:32:56.197Z,1513.13
2018-09-09T11:33:56.450Z,1473.75
2018-09-09T11:34:56.702Z,1659.38
2018-09-09T11:35:57.044Z,1710.00
2018-09-09T11:36:57.839Z,1501.88
2018-09-09T11:37:57.719Z,1501.88
2018-09-09T11:38:58.051Z,1546.88
2018-09-09T11:39:58.416Z,1451.25
2018-09-09T11:40:58.752Z,1440.00
2018-09-09T11:41:59.145Z,1389.38
2018-09-09T11:42:59.414Z,1333.13
2018-09-09T11:43:59.671Z,1321.88
2018-09-09T11:45:00.060Z,1299.38
2018-09-09T11:46:00.437Z,1305.00
2018-09-09T11:47:00.820Z,1271.25
2018-09-09T11:48:01.075Z,1260.00
2018-09-09T11:49:01.990Z,1271.25
2018-09-09T11:50:02.467Z,1271.25
2018-09-09T11:51:01.975Z,1299.38
2018-09-09T11:52:02.226Z,1305.00
2018-09-09T11:53:02.540Z,1316.25
2018-09-09T11:54:02.730Z,1305.00
2018-09-09T11:55:02.980Z,1209.38
2018-09-09T11:56:03.232Z,1164.38
2018-09-09T11:57:03.484Z,1198.13
2018-09-09T11:58:03.736Z,1248.75
2018-09-09T11:59:03.989Z,1248.75
2018-09-09T12:00:04.240Z,1226.25
2018-09-09T12:01:04.490Z,1243.13
2018-09-09T12:02:04.786Z,1395.00
2018-09-09T12:03:04.994Z,1535.63
2018-09-09T12:04:05.247Z,1783.13
2018-09-09T12:05:05.500Z,1794.38
2018-09-09T12:06:05.754Z,2233.13
2018-09-09T12:07:06.004Z,2778.75
2018-09-09T12:08:06.256Z,3178.13
2018-09-09T12:09:06.506Z,2700.00
2018-09-09T12:10:06.754Z,2340.00
2018-09-09T12:11:07.004Z,2188.13
2018-09-09T12:12:07.260Z,2970.00
2018-09-09T12:13:07.507Z,2733.75
2018-09-09T12:14:07.757Z,2238.75
2018-09-09T12:15:08.010Z,2193.75
2018-09-09T12:16:08.264Z,3380.63
2018-09-09T12:17:08.514Z,2868.75
2018-09-09T12:18:08.767Z,4921.88
2018-09-09T12:19:09.021Z,4663.13
2018-09-09T12:20:09.275Z,4696.88
2018-09-09T12:21:09.530Z,3397.50
2018-09-09T12:22:09.778Z,2559.38
2018-09-09T12:23:10.027Z,2418.75
2018-09-09T12:24:10.285Z,1940.63
2018-09-09T12:25:10.539Z,1749.38
2018-09-09T12:26:10.792Z,1676.25
2018-09-09T12:27:11.045Z,1614.38
2018-09-09T12:28:11.303Z,1479.38
2018-09-09T12:29:11.553Z,1417.50
2018-09-09T12:30:11.808Z,1305.00
2018-09-09T12:31:12.061Z,1299.38
2018-09-09T12:32:12.354Z,1513.13
2018-09-09T12:33:12.568Z,1665.00
2018-09-09T12:34:12.821Z,1648.13
2018-09-09T12:35:13.077Z,1681.88
2018-09-09T12:36:13.334Z,1586.25
2018-09-09T12:37:13.583Z,1383.75
2018-09-09T12:38:13.836Z,1355.63
2018-09-09T12:39:14.088Z,1310.63
2018-09-09T12:40:14.340Z,1243.13
2018-09-09T12:41:14.593Z,1265.63
2018-09-09T12:42:14.847Z,1687.50
2018-09-09T12:43:15.102Z,2463.75
2018-09-09T12:44:15.354Z,3442.50
2018-09-09T12:45:15.610Z,4713.75